Aérodrome :
LOGIN :

S'inscrire | Disclaimer

   EN    FR    IT 

 










Légende :    VFR   VFR Marginal   IFR   IFR Intensif   IFR Très Intensif
Visi : 
Plafond : 
>= 8 km
>= 3000ft
5 à 8 km
1000 à 3000 ft
1500m à 5 km
500 à 1000 ft
800 à 1500m
200 à 500 ft
< 800m
< 200 ft
Symboles :   Orages  Brouillard  Fortes neiges  Fortes précipitations  Vent > 20 kt
SIGMETs :   Divers  Orages  Givrage  Turbulence  Onde Orograph.  Cendres Volcan.







- Altitude de l'aérodrome : 20 ft


EBFN - Koksijde

METARs EXPIRÉS :
  • 241425Z AUTO 24015KT 9999 OVC014/// 17/15 Q1015 GRN
  • 241414Z AUTO 24014KT 9999 OVC014/// 18/15 Q1015 GRN
  • 241355Z 25015KT 8000 BKN015 BKN018 18/15 Q1015 WHT WHT TEMPO GRN
  • 241346Z 24016KT 8000 BKN015 BKN018 18/15 Q1015 WHT WHT TEMPO GRN
  • 241325Z 24015KT 8000 BKN014 BKN018 18/15 Q1015 GRN GRN
  • 241311Z 24014KT 7000 -RA OVC014 18/15 Q1015 GRN GRN
  • 241255Z AUTO 24016KT 9000 OVC014/// 18/15 Q1015 GRN
  • 241225Z AUTO 25015KT 9999 OVC014/// 18/14 Q1016 GRN
  • 241155Z AUTO 25015KT 9999 OVC014/// 18/14 Q1016 GRN

Prévision TAF périmée.
Pas de NOTAMs connus pour ce terrain.
1 SIGMET publié pour la FIR Brussels (EBBU) :
 
Turbulence forte
EBBU SIGMET 01 VALID 242300/250300 EBBR
EBBU BRUSSELS FIR SEV TURB FCST E OF LINE N5001 E00408 - N5110 E00560 FL300/370 MOV SE 15KT NC=



MET'MAP, la Météo Aéronautique d'un coup d'oeil ! - Copyright ORBIFLY Décembre 2007 - Disclaimer

ORBIFLY MET'MAP TEAM :

Programmation & Développement : Alexandra Zaïnal
Conception & Développement : Baudouin d'Aumeries
Co-Programmation & Développement : Marc-Olivier Méhu
Soutien technique & logistique : Manuel Goepfert

Contact : metmap@orbifly.com




SOURCES & CREDITS :

   NOAA